Time;durP1;ratioP1;P1;durP2;ratioP2;P2;SDS_P1;SDS_P2;PMS_P1;PMS_P2;Temp;Humidity;BMP_temperature;BMP_pressure;BME280_temperature;BME280_humidity;BME280_pressure;Samples;Min_cycle;Max_cycle;Signal;HPM_P1;HPM_P2
2023/07/30 00:02:18;;;;;;;15.45;8.18;;;16.50;99.90;;;15.65;100.00;100293.16;4802255;29;20619;-83
2023/07/30 00:05:00;;;;;;;11.20;6.47;;;;;;;15.70;100.00;100291.88;4797632;29;20037;-83
2023/07/30 00:07:25;;;;;;;12.88;7.10;;;16.60;99.90;;;15.73;100.00;100293.47;4786237;29;20102;-83
2023/07/30 00:10:36;;;;;;;19.02;7.93;;;16.60;99.90;;;15.70;100.00;100288.34;4864988;23;20042;-83
2023/07/30 00:13:27;;;;;;;15.13;7.82;;;;;;;15.69;100.00;100298.13;4922618;28;20042;-84
2023/07/30 00:16:08;;;;;;;;;;;;;;;;;;;;;
2023/07/30 00:18:53;;;;;;;16.55;8.73;;;;;;;15.62;100.00;100296.91;4926217;28;20069;-83
2023/07/30 00:21:38;;;;;;;;;;;;;;;;;;;;;
2023/07/30 00:24:24;;;;;;;12.82;8.77;;;;;;;15.57;100.00;100304.34;4899410;28;20043;-84
2023/07/30 00:26:50;;;;;;;22.55;8.75;;;16.40;99.90;;;15.56;100.00;100306.16;4906976;28;21030;-83
2023/07/30 00:29:16;;;;;;;25.10;10.10;;;16.40;99.90;;;15.53;100.00;100310.84;4882472;28;20040;-82
2023/07/30 00:32:11;;;;;;;27.73;9.82;;;16.40;99.90;;;15.51;100.00;100310.13;4836308;28;20044;-83
2023/07/30 00:34:37;;;;;;;19.92;9.18;;;16.40;99.90;;;15.48;100.00;100318.28;4902155;28;20034;-83
2023/07/30 00:37:49;;;;;;;17.00;10.18;;;;;;;15.48;100.00;100316.47;4917260;28;20420;-83
2023/07/30 00:40:29;;;;;;;27.23;10.63;;;16.40;99.90;;;15.47;100.00;100309.50;4860958;29;20047;-83
2023/07/30 00:43:20;;;;;;;;;;;;;;;;;;;;;
2023/07/30 00:45:47;;;;;;;20.17;8.90;;;;;;;15.52;100.00;100299.38;4884687;29;20361;-83
2023/07/30 00:48:28;;;;;;;19.92;9.85;;;;;;;15.56;100.00;100310.63;4849341;29;20590;-84
2023/07/30 00:51:07;;;;;;;18.70;9.13;;;16.40;99.90;;;15.55;100.00;100315.09;4865771;29;20043;-84
2023/07/30 00:54:23;;;;;;;20.25;10.32;;;16.40;99.90;;;15.54;100.00;100320.50;4870297;29;20699;-84
2023/07/30 00:56:58;;;;;;;22.80;9.82;;;16.40;99.90;;;15.48;100.00;100310.31;4842746;29;20044;-83
2023/07/30 00:59:37;;;;;;;22.63;9.93;;;;;;;15.44;100.00;100317.66;4784888;29;20045;-83
2023/07/30 01:02:17;;;;;;;21.52;11.35;;;16.40;99.90;;;15.39;100.00;100312.69;4850629;29;20047;-84
2023/07/30 01:08:29;;;;;;;17.90;9.65;;;;;;;15.32;100.00;100329.19;4732183;29;20058;-83
2023/07/30 01:11:08;;;;;;;20.85;10.77;;;16.20;99.90;;;15.28;100.00;100327.72;4724730;29;20510;-83
2023/07/30 01:14:16;;;;;;;22.52;9.60;;;16.20;99.90;;;15.24;100.00;100328.88;4720647;29;20036;-84
2023/07/30 01:16:57;;;;;;;23.42;11.35;;;;;;;15.19;100.00;100323.91;4727691;29;20039;-83
2023/07/30 01:19:27;;;;;;;23.88;11.63;;;;;;;15.17;100.00;100328.47;4736798;29;20100;-83
2023/07/30 01:22:22;;;;;;;24.42;12.48;;;16.10;99.90;;;15.13;100.00;100330.50;4708021;29;20040;-83
2023/07/30 01:25:29;;;;;;;22.63;11.98;;;;;;;15.10;100.00;100333.38;4744785;29;20081;-83
2023/07/30 01:27:58;;;;;;;21.65;12.57;;;16.00;99.90;;;15.07;100.00;100332.75;4716479;30;20049;-83
2023/07/30 01:31:55;;;;;;;24.10;12.10;;;16.00;99.90;;;15.07;100.00;100348.66;4679520;30;20048;-85
2023/07/30 01:34:20;;;;;;;17.17;11.30;;;16.00;99.90;;;15.00;100.00;100335.00;4584461;30;20061;-83
2023/07/30 01:36:57;;;;;;;33.20;13.82;;;15.90;99.90;;;14.98;100.00;100342.22;4630661;30;20215;-84
2023/07/30 01:40:29;;;;;;;21.70;9.05;;;15.90;99.90;;;14.88;100.00;100342.03;4610680;30;20038;-85
2023/07/30 01:42:55;;;;;;;20.50;12.52;;;15.80;99.90;;;14.83;100.00;100344.13;4594606;30;20042;-82
2023/07/30 01:45:38;;;;;;;;;;;;;;;;;;;;;
2023/07/30 01:48:08;;;;;;;12.90;8.95;;;;;;;14.80;100.00;100357.63;4612745;30;20754;-84
2023/07/30 01:51:06;;;;;;;22.15;11.00;;;;;;;14.77;100.00;100363.13;4612522;30;20041;-83
2023/07/30 01:53:51;;;;;;;18.23;11.23;;;;;;;14.72;100.00;100358.13;4591544;30;20148;-83
2023/07/30 01:56:55;;;;;;;24.33;12.95;;;15.70;99.90;;;14.69;100.00;100361.00;4605391;30;20074;-83
2023/07/30 01:59:36;;;;;;;22.35;12.60;;;;;;;14.67;100.00;100362.09;4584441;30;20482;-84
2023/07/30 02:02:16;;;;;;;32.65;13.23;;;15.60;99.90;;;14.65;100.00;100367.47;4585247;30;20055;-84
2023/07/30 02:04:58;;;;;;;29.15;12.38;;;15.60;99.90;;;14.60;100.00;100356.38;4662206;30;20678;-83
2023/07/30 02:07:27;;;;;;;26.17;13.02;;;15.60;99.90;;;14.59;100.00;100361.75;4706462;30;20054;-85
2023/07/30 02:09:58;;;;;;;28.77;14.18;;;15.50;99.90;;;14.57;100.00;100361.84;4734004;23;20043;-85
2023/07/30 02:12:24;;;;;;;23.85;12.10;;;15.50;99.90;;;14.53;100.00;100355.88;4900260;28;20085;-83
2023/07/30 02:15:10;;;;;;;24.45;11.27;;;15.50;99.90;;;14.51;100.00;100367.53;4890205;28;20031;-83
2023/07/30 02:17:47;;;;;;;22.10;10.27;;;15.40;99.90;;;14.44;100.00;100358.34;4874896;28;20042;-82
2023/07/30 02:20:15;;;;;;;20.00;7.40;;;15.40;99.90;;;14.38;100.00;100359.59;4847997;29;21401;-83
2023/07/30 02:22:50;;;;;;;12.90;7.53;;;15.30;99.90;;;14.29;100.00;100352.28;4880802;28;20024;-83
2023/07/30 02:25:16;;;;;;;16.95;7.00;;;;;;;14.22;100.00;100365.09;4858885;28;20035;-83
2023/07/30 02:27:53;;;;;;;36.53;12.90;;;15.20;99.90;;;14.15;100.00;100364.66;4899805;28;20452;-83
2023/07/30 02:30:19;;;;;;;20.30;7.90;;;15.10;99.90;;;14.08;100.00;100362.50;4865470;28;20035;-83
2023/07/30 02:32:45;;;;;;;136.07;28.60;;;15.00;99.90;;;14.03;100.00;100369.91;4893977;29;20040;-83
2023/07/30 02:35:11;;;;;;;28.90;13.35;;;14.90;99.90;;;13.96;100.00;100372.13;4848234;28;21497;-83
2023/07/30 02:38:17;;;;;;;266.10;29.45;;;14.90;99.90;;;13.93;100.00;100373.19;4924948;28;20067;-83
2023/07/30 02:40:56;;;;;;;33.03;14.77;;;14.90;99.90;;;13.84;100.00;100376.41;4902419;28;20071;-83
2023/07/30 02:43:42;;;;;;;24.52;15.13;;;14.80;99.90;;;13.83;100.00;100374.72;4910261;28;20106;-83
2023/07/30 02:46:18;;;;;;;20.17;12.77;;;;;;;13.84;100.00;100372.94;4878848;28;20043;-83
2023/07/30 02:48:56;;;;;;;25.63;10.35;;;;;;;13.83;100.00;100374.72;4911292;28;20077;-84
2023/07/30 02:51:56;;;;;;;22.75;11.50;;;;;;;13.82;100.00;100374.81;4828539;29;20031;-83
2023/07/30 02:54:37;;;;;;;35.67;11.23;;;;;;;13.79;100.00;100375.03;4896158;28;20119;-84
2023/07/30 02:57:18;;;;;;;25.13;10.52;;;14.70;99.90;;;13.79;100.00;100378.53;4915558;28;20057;-84
2023/07/30 03:00:28;;;;;;;34.92;13.57;;;14.70;99.90;;;13.77;100.00;100376.94;4911073;28;20580;-84
2023/07/30 03:03:07;;;;;;;23.88;11.48;;;;;;;13.72;100.00;100375.44;4779330;29;20046;-84
2023/07/30 03:06:31;;;;;;;21.38;11.10;;;14.70;99.90;;;13.70;100.00;100373.84;4780220;29;20057;-85
2023/07/30 03:08:57;;;;;;;127.30;15.70;;;14.70;99.90;;;13.66;100.00;100382.94;4692591;29;20069;-83
2023/07/30 03:11:37;;;;;;;12.55;6.38;;;14.60;99.90;;;13.62;100.00;100382.28;4691211;30;20044;-82
2023/07/30 03:14:05;;;;;;;661.33;32.45;;;;;;;13.57;100.00;100381.72;4720637;29;20053;-83
2023/07/30 03:16:58;;;;;;;115.75;20.33;;;;;;;13.53;100.00;100372.28;4790877;29;20135;-83
2023/07/30 03:19:52;;;;;;;13.02;7.20;;;14.50;99.90;;;13.47;100.00;100377.97;4748706;29;20545;-83
2023/07/30 03:22:18;;;;;;;9.25;6.47;;;;;;;13.42;100.00;100366.84;4728162;29;20042;-82
2023/07/30 03:24:47;;;;;;;11.05;5.70;;;14.40;99.90;;;13.38;100.00;100366.19;4768062;29;20084;-83
2023/07/30 03:27:26;;;;;;;13.88;6.40;;;;;;;13.40;100.00;100374.88;4699837;29;20051;-83
2023/07/30 03:30:05;;;;;;;16.55;5.70;;;;;;;13.40;100.00;100377.53;4725275;29;20472;-84
2023/07/30 03:32:31;;;;;;;101.00;22.73;;;14.40;99.90;;;13.44;100.00;100375.53;4751328;29;20097;-83
2023/07/30 03:35:19;;;;;;;30.20;11.20;;;14.40;99.90;;;13.47;100.00;100377.97;4818799;29;20053;-83
2023/07/30 03:37:46;;;;;;;29.10;15.35;;;;;;;13.52;100.00;100387.31;4790410;29;20045;-84
2023/07/30 03:40:38;;;;;;;56.53;16.90;;;14.50;99.90;;;13.60;100.00;100384.16;4896807;23;20026;-84
2023/07/30 03:43:07;;;;;;;18.98;9.65;;;;;;;13.63;100.00;100385.75;4843534;29;20158;-84
2023/07/30 03:45:44;;;;;;;44.28;11.82;;;;;;;13.67;100.00;100390.78;4817081;29;20049;-83
2023/07/30 03:48:09;;;;;;;550.17;29.45;;;14.60;99.90;;;13.67;100.00;100389.91;4815485;29;20044;-82
2023/07/30 03:50:35;;;;;;;15.27;7.15;;;14.60;99.90;;;13.69;100.00;100394.19;4816341;29;20121;-83
2023/07/30 03:53:11;;;;;;;;;;;;;;;;;;;;;
2023/07/30 03:56:19;;;;;;;;;;;;;;;;;;;;;
2023/07/30 03:58:48;;;;;;;34.85;12.40;;;;;;;13.86;100.00;100389.56;4821928;29;22047;-84
2023/07/30 04:01:30;;;;;;;37.35;13.25;;;14.70;99.90;;;13.97;100.00;100391.50;4873170;23;20481;-81
2023/07/30 04:03:58;;;;;;;27.48;14.20;;;;;;;14.09;100.00;100399.47;4897424;28;20048;-83
2023/07/30 04:06:36;;;;;;;19.83;12.45;;;15.00;99.90;;;14.23;100.00;100401.19;4888903;28;20039;-83
2023/07/30 04:09:12;;;;;;;;;;;;;;;;;;;;;
2023/07/30 04:12:09;;;;;;;31.83;14.00;;;15.60;99.90;;;15.12;100.00;100411.03;4896925;28;21227;-83
2023/07/30 04:14:36;;;;;;;69.22;14.18;;;15.80;99.90;;;15.42;100.00;100409.81;4894454;28;20050;-83
2023/07/30 04:17:03;;;;;;;95.32;13.90;;;;;;;15.83;100.00;100413.06;4877699;28;20121;-83
2023/07/30 04:19:38;;;;;;;23.20;10.50;;;16.60;99.90;;;16.51;100.00;100415.03;4895525;28;20035;-83
2023/07/30 04:22:07;;;;;;;15.25;9.00;;;17.50;99.90;;;17.67;100.00;100425.47;4913639;23;20058;-82
2023/07/30 04:24:47;;;;;;;28.80;8.25;;;18.80;99.90;;;19.11;98.76;100441.03;4896725;28;20052;-83
2023/07/30 04:27:35;;;;;;;17.80;6.05;;;19.90;99.90;;;20.53;87.99;100434.53;4880318;28;20042;-83
2023/07/30 04:30:46;;;;;;;20.25;6.03;;;21.10;99.90;;;22.02;79.00;100444.38;4852075;29;20045;-83
2023/07/30 04:33:17;;;;;;;20.48;5.20;;;22.60;99.90;;;23.67;71.82;100450.72;4851996;28;20104;-83
2023/07/30 04:36:07;;;;;;;14.15;4.97;;;;;;;25.04;66.93;100464.59;4822287;29;20047;-84
2023/07/30 04:38:36;;;;;;;11.07;4.97;;;;;;;25.67;63.68;100460.16;4827897;29;20047;-85
2023/07/30 04:41:17;;;;;;;15.00;5.13;;;;;;;24.01;66.27;100451.63;4831152;28;20075;-83
2023/07/30 04:43:43;;;;;;;25.00;6.10;;;23.70;99.90;;;23.04;67.95;100446.56;4831017;29;20036;-84
2023/07/30 04:46:17;;;;;;;18.00;5.32;;;23.00;99.90;;;22.93;69.69;100458.38;4871276;29;20044;-83
2023/07/30 04:48:45;;;;;;;14.88;5.22;;;23.40;99.90;;;24.12;66.67;100462.91;4869117;29;20056;-83
2023/07/30 04:51:24;;;;;;;18.45;4.93;;;;;;;25.88;62.38;100468.50;4843325;29;20040;-84
2023/07/30 04:53:57;;;;;;;26.10;5.55;;;25.10;99.90;;;27.09;59.04;100476.81;4840224;29;20037;-82
2023/07/30 04:56:29;;;;;;;14.25;4.57;;;;;;;28.69;55.35;100489.56;4796936;29;20041;-84
2023/07/30 04:59:05;;;;;;;14.77;4.28;;;;;;;29.88;52.80;100502.19;4794004;29;20079;-84
2023/07/30 05:01:33;;;;;;;14.32;4.00;;;28.30;99.90;;;31.02;50.07;100510.28;4828863;29;20143;-83
2023/07/30 05:03:59;;;;;;;9.23;3.88;;;29.10;99.90;;;31.83;48.31;100525.34;4795623;29;20081;-83
2023/07/30 05:06:38;;;;;;;12.30;4.45;;;29.80;99.90;;;32.58;46.23;100534.81;4838232;29;20435;-84
2023/07/30 05:09:27;;;;;;;15.85;4.13;;;;;;;32.96;45.21;100536.56;4834800;29;20447;-84
2023/07/30 05:11:56;;;;;;;13.65;4.00;;;;;;;33.53;44.31;100550.94;4860482;29;20049;-84
2023/07/30 05:15:14;;;;;;;14.38;4.18;;;31.30;99.50;;;34.52;43.07;100548.00;4855267;28;20499;-84
2023/07/30 05:17:46;;;;;;;11.30;3.80;;;31.90;99.70;;;35.02;41.60;100569.50;4752831;29;20054;-84
2023/07/30 05:20:37;;;;;;;19.85;4.47;;;32.30;98.80;;;35.30;40.98;100568.78;4776176;23;20051;-86
2023/07/30 05:23:08;;;;;;;15.18;4.10;;;32.60;97.50;;;35.80;40.19;100570.16;4906344;28;20126;-84
2023/07/30 05:26:06;;;;;;;10.52;3.63;;;33.10;96.50;;;36.81;38.69;100577.03;4882912;28;20424;-84
2023/07/30 05:28:55;;;;;;;12.63;3.58;;;33.00;97.10;;;34.14;41.25;100570.19;4830511;29;20036;-85
2023/07/30 05:31:36;;;;;;;11.63;3.97;;;;;;;31.17;45.75;100553.56;4805135;29;20045;-85
2023/07/30 05:34:37;;;;;;;10.10;4.43;;;30.40;98.10;;;31.31;46.19;100557.09;4816358;29;20415;-84
2023/07/30 05:37:18;;;;;;;12.02;3.97;;;30.40;99.30;;;33.41;43.72;100578.13;4739195;29;20064;-85
2023/07/30 05:40:08;;;;;;;11.50;3.55;;;31.00;98.90;;;34.86;40.97;100573.75;4737774;29;20115;-85
2023/07/30 05:43:26;;;;;;;7.78;3.00;;;32.00;98.30;;;35.59;38.89;100582.56;4794990;29;20449;-84
2023/07/30 05:46:16;;;;;;;20.42;3.20;;;33.00;96.80;;;37.05;38.14;100600.44;4760608;29;20045;-86
2023/07/30 05:48:57;;;;;;;10.98;3.05;;;33.70;96.30;;;37.80;36.60;100608.41;4798355;29;20034;-85
2023/07/30 05:51:25;;;;;;;10.88;3.03;;;34.50;95.80;;;38.13;35.66;100602.81;4779276;29;20464;-85
2023/07/30 05:54:36;;;;;;;8.35;2.78;;;34.90;94.70;;;38.46;35.54;100603.69;4767216;29;20039;-86
2023/07/30 05:56:56;;;;;;;16.15;2.85;;;;;;;39.48;34.10;100609.22;4782463;29;20055;-86
2023/07/30 06:02:17;;;;;;;13.02;2.90;;;36.60;91.40;;;40.11;32.94;100620.28;4963141;23;20472;-85
2023/07/30 06:04:58;;;;;;;9.65;3.03;;;37.00;90.30;;;40.33;31.96;100622.03;4933090;28;20061;-86
2023/07/30 06:07:59;;;;;;;9.18;2.40;;;36.30;90.10;;;36.83;35.32;100580.34;4925075;28;20030;-86
2023/07/30 06:10:47;;;;;;;8.80;2.67;;;35.60;90.70;;;36.63;36.05;100570.69;4825232;29;20036;-86
2023/07/30 06:13:16;;;;;;;9.15;2.50;;;35.20;91.80;;;37.45;36.09;100584.84;4820435;29;20494;-85
2023/07/30 06:16:06;;;;;;;12.35;2.55;;;35.40;92.10;;;38.39;34.80;100581.09;4806062;29;20506;-85
2023/07/30 06:18:38;;;;;;;7.75;2.13;;;;;;;38.83;33.89;100594.69;4813745;29;20047;-86
2023/07/30 06:21:44;;;;;;;13.27;2.95;;;36.50;90.70;;;38.86;33.29;100585.09;4872411;23;20051;-86
2023/07/30 06:24:15;;;;;;;13.82;2.53;;;;;;;37.08;35.42;100577.97;4837068;29;20607;-86
2023/07/30 06:27:04;;;;;;;11.00;2.38;;;;;;;34.36;37.98;100551.38;4879013;28;20207;-86
2023/07/30 06:29:47;;;;;;;10.15;2.67;;;33.60;91.30;;;32.14;41.79;100512.00;4867003;28;20063;-87
2023/07/30 06:32:28;;;;;;;8.35;2.45;;;;;;;30.39;45.17;100486.25;4844871;28;20041;-85
2023/07/30 06:35:06;;;;;;;10.50;2.65;;;;;;;28.94;47.55;100465.53;4851068;28;20100;-85
2023/07/30 06:38:06;;;;;;;12.93;2.33;;;29.30;95.40;;;27.85;50.04;100460.34;4825709;29;20083;-85
2023/07/30 06:40:37;;;;;;;14.15;3.33;;;28.30;96.80;;;26.97;52.69;100452.13;4870458;23;20054;-85
2023/07/30 06:43:06;;;;;;;11.40;2.60;;;27.60;97.40;;;26.30;53.74;100455.56;4950962;28;20026;-85
2023/07/30 06:45:34;;;;;;;6.95;2.20;;;27.00;98.60;;;25.84;55.00;100445.56;4941072;28;20037;-85
2023/07/30 06:48:15;;;;;;;9.48;2.53;;;26.50;99.50;;;25.43;55.82;100437.72;4919895;28;20398;-84
2023/07/30 06:50:48;;;;;;;9.45;2.45;;;26.00;99.90;;;24.64;57.21;100429.47;4971112;28;20443;-85
2023/07/30 06:53:16;;;;;;;11.57;2.30;;;25.40;99.90;;;24.07;58.45;100435.69;4964641;28;20519;-84
2023/07/30 06:58:34;;;;;;;10.02;2.22;;;24.40;99.90;;;23.40;60.51;100426.75;4917930;28;20042;-85
2023/07/30 07:01:02;;;;;;;9.15;2.25;;;24.10;99.90;;;23.24;61.18;100428.38;4925184;23;20132;-84
2023/07/30 07:03:34;;;;;;;12.70;1.92;;;23.90;99.90;;;23.10;61.04;100421.75;4917692;28;20039;-84
2023/07/30 07:05:59;;;;;;;6.15;2.13;;;23.80;99.90;;;23.19;61.64;100419.09;4908553;28;20038;-84
2023/07/30 07:08:27;;;;;;;9.07;2.15;;;;;;;23.65;62.22;100427.66;4893736;28;20121;-84
2023/07/30 07:11:07;;;;;;;8.82;2.20;;;24.00;99.90;;;23.78;62.69;100422.72;4897863;28;20077;-85
2023/07/30 07:13:45;;;;;;;12.02;2.28;;;24.10;99.90;;;23.73;62.57;100420.47;4910597;28;20050;-84
2023/07/30 07:16:21;;;;;;;;;;;;;;;;;;;;;
2023/07/30 07:18:48;;;;;;;11.20;2.58;;;24.20;99.90;;;24.06;61.69;100420.56;4871633;28;20040;-84
2023/07/30 07:21:17;;;;;;;12.50;2.13;;;;;;;26.06;58.04;100430.44;4898563;28;20038;-85
2023/07/30 07:23:43;;;;;;;11.52;2.00;;;26.20;99.90;;;28.02;54.12;100441.00;4903736;28;20042;-85
2023/07/30 07:26:18;;;;;;;6.78;1.92;;;27.50;99.90;;;27.71;52.10;100421.47;4916317;28;20381;-84
2023/07/30 07:28:47;;;;;;;11.45;2.45;;;27.60;99.90;;;27.24;53.32;100420.94;4900356;28;20049;-85
2023/07/30 07:31:18;;;;;;;6.15;1.70;;;27.60;99.90;;;27.75;53.02;100430.91;4905797;28;20042;-85
2023/07/30 07:33:45;;;;;;;6.03;1.70;;;28.20;99.90;;;29.47;49.57;100444.19;4913615;28;20045;-85
2023/07/30 07:36:11;;;;;;;8.23;1.80;;;29.30;99.70;;;29.94;48.01;100450.63;4909550;28;20074;-85
2023/07/30 07:38:37;;;;;;;7.80;2.03;;;29.80;98.20;;;29.55;48.44;100451.31;4876109;28;20035;-84
2023/07/30 07:41:16;;;;;;;7.65;1.90;;;29.40;97.30;;;28.36;49.03;100453.00;4890825;28;20070;-85
2023/07/30 07:43:52;;;;;;;8.32;1.95;;;28.70;96.30;;;26.92;50.91;100441.03;4919358;28;20058;-84
2023/07/30 07:46:18;;;;;;;;;;;27.50;98.10;;;25.97;52.86;100421.59;4865599;28;20658;-85
2023/07/30 07:48:44;;;;;;;9.67;1.97;;;26.90;99.60;;;25.79;54.34;100418.31;4887721;28;20002;-84
2023/07/30 07:51:11;;;;;;;11.60;1.77;;;26.50;99.90;;;25.61;55.89;100412.34;4901839;28;20034;-84
2023/07/30 07:53:44;;;;;;;9.93;2.13;;;26.20;99.90;;;25.49;56.58;100420.84;4880292;28;20128;-84
2023/07/30 07:56:13;;;;;;;7.57;2.00;;;26.20;99.90;;;25.74;55.64;100408.03;4971793;28;20038;-84
2023/07/30 07:58:39;;;;;;;11.93;2.38;;;26.20;99.90;;;26.22;54.82;100417.84;4931562;28;20705;-85
2023/07/30 08:01:12;;;;;;;14.20;2.55;;;26.30;99.90;;;25.94;55.23;100405.78;4943569;28;20070;-84
2023/07/30 08:03:38;;;;;;;10.75;2.03;;;26.10;99.90;;;25.36;56.68;100415.19;4901270;28;20485;-83
2023/07/30 08:06:06;;;;;;;10.45;2.63;;;25.70;99.90;;;24.52;59.20;100407.47;4928058;28;20125;-84
2023/07/30 08:08:37;;;;;;;15.63;2.60;;;25.10;99.90;;;23.77;62.17;100407.56;4910311;28;20035;-82
2023/07/30 08:11:07;;;;;;;8.20;2.20;;;24.60;99.90;;;23.38;64.65;100410.78;4933213;28;20034;-83
2023/07/30 08:13:34;;;;;;;6.82;2.15;;;24.20;99.90;;;23.00;66.25;100407.63;4895975;28;20095;-83
2023/07/30 08:16:07;;;;;;;8.63;2.53;;;24.10;99.90;;;23.68;65.99;100413.91;4919696;28;20033;-83
2023/07/30 08:18:33;;;;;;;8.05;2.40;;;24.40;99.90;;;24.30;64.49;100408.97;4915083;28;20110;-83
2023/07/30 08:21:17;;;;;;;5.75;2.65;;;24.80;99.90;;;25.40;63.99;100410.25;4915493;28;20107;-83
2023/07/30 08:23:43;;;;;;;5.85;2.40;;;25.50;99.90;;;25.89;61.60;100410.84;4959315;28;20042;-84
2023/07/30 08:26:14;;;;;;;8.30;2.63;;;26.00;99.90;;;26.13;59.38;100411.69;4949411;28;20611;-83
2023/07/30 08:28:40;;;;;;;13.00;3.55;;;26.20;99.90;;;25.82;59.45;100403.63;4906147;28;20039;-82
2023/07/30 08:31:05;;;;;;;6.43;2.90;;;26.00;99.90;;;25.26;60.73;100401.91;4935033;28;20448;-82
2023/07/30 08:46:34;;;;;;;9.48;4.55;;;26.40;99.90;;;26.22;58.74;100432.22;4971918;27;3518483;-83
2023/07/30 08:49:00;;;;;;;4.95;4.45;;;26.50;99.90;;;26.49;58.43;100421.84;4998890;28;20047;-83
2023/07/30 08:51:27;;;;;;;9.80;4.28;;;26.60;99.90;;;26.49;58.30;100428.09;4990945;28;20511;-84
2023/07/30 08:54:14;;;;;;;8.25;3.85;;;26.60;99.90;;;26.27;58.93;100423.56;4968245;28;20037;-84
2023/07/30 08:56:41;;;;;;;5.97;4.15;;;26.30;99.90;;;25.77;58.94;100417.66;4936097;28;20029;-83
2023/07/30 08:59:08;;;;;;;5.30;3.92;;;26.10;99.90;;;25.34;59.61;100419.91;4932643;28;20089;-84
2023/07/30 09:01:44;;;;;;;7.70;3.17;;;25.90;99.90;;;25.41;59.92;100417.34;4974659;28;20130;-85
2023/07/30 09:04:15;;;;;;;;;;;25.90;99.90;;;25.70;59.47;100419.34;4956162;28;20120;-84
2023/07/30 09:06:45;;;;;;;4.80;2.50;;;26.10;99.90;;;25.99;58.27;100416.84;4999613;28;20036;-83
2023/07/30 09:09:17;;;;;;;4.55;2.90;;;26.20;99.90;;;25.95;58.20;100417.38;4980119;28;20037;-83
2023/07/30 09:11:55;;;;;;;6.65;2.65;;;26.30;99.90;;;26.24;58.98;100427.47;4954473;28;20041;-83
2023/07/30 09:14:34;;;;;;;;;;;;;;;;;;;;;
2023/07/30 09:17:12;;;;;;;5.88;2.40;;;26.70;99.90;;;26.55;56.24;100429.22;4971651;28;20373;-83
2023/07/30 09:19:38;;;;;;;7.63;2.03;;;26.80;99.90;;;26.57;56.10;100429.91;4960120;28;20050;-83
2023/07/30 09:22:40;;;;;;;6.88;2.00;;;26.80;99.90;;;26.67;58.33;100430.47;4928601;28;20353;-84
2023/07/30 09:25:16;;;;;;;4.60;1.83;;;27.00;99.90;;;26.89;55.76;100430.59;4939160;28;20046;-84
2023/07/30 09:27:49;;;;;;;4.90;1.63;;;27.00;99.90;;;26.70;55.55;100432.81;4975099;28;20042;-83
2023/07/30 09:30:21;;;;;;;12.90;1.90;;;27.00;99.90;;;26.55;56.50;100438.16;4964740;28;20288;-83
2023/07/30 09:32:56;;;;;;;5.40;1.58;;;26.70;99.90;;;26.27;56.53;100437.06;5015729;28;20030;-83
2023/07/30 09:35:27;;;;;;;2.57;1.50;;;26.80;99.90;;;26.43;55.67;100442.31;5000307;28;20139;-83
2023/07/30 09:38:02;;;;;;;3.03;1.65;;;26.80;99.90;;;26.56;55.99;100449.81;4990797;28;20041;-83
2023/07/30 09:40:38;;;;;;;3.63;1.50;;;26.90;99.90;;;26.63;55.19;100442.69;5036026;28;20029;-83
2023/07/30 09:43:05;;;;;;;;;;;26.90;99.90;;;26.55;54.01;100438.16;5025493;28;20033;-83
2023/07/30 09:45:47;;;;;;;7.95;1.70;;;26.80;99.90;;;26.07;56.12;100439.38;4994958;28;19924;-83
2023/07/30 09:48:15;;;;;;;2.78;1.50;;;26.50;99.90;;;25.75;56.34;100439.41;4991190;28;20111;-84
2023/07/30 09:50:52;;;;;;;2.97;1.90;;;26.20;99.90;;;25.63;56.98;100443.50;4994111;28;20065;-83
2023/07/30 09:53:26;;;;;;;2.08;1.38;;;26.10;99.90;;;25.61;58.04;100431.22;4981412;28;20021;-82
2023/07/30 09:55:52;;;;;;;7.07;1.92;;;26.00;99.90;;;25.61;57.68;100434.75;5015371;28;20037;-82
2023/07/30 09:58:18;;;;;;;2.22;1.63;;;25.80;99.90;;;25.15;57.52;100427.34;5018812;28;20597;-82
2023/07/30 10:00:47;;;;;;;4.95;1.73;;;25.60;99.90;;;24.95;58.74;100424.22;5019104;28;20159;-82
2023/07/30 10:03:18;;;;;;;4.60;1.60;;;25.40;99.90;;;24.67;59.21;100414.84;4976316;28;20060;-83
2023/07/30 10:05:50;;;;;;;3.03;1.33;;;25.30;99.90;;;24.79;56.69;100418.84;5003408;28;20045;-81
2023/07/30 10:08:28;;;;;;;2.95;1.50;;;25.40;99.90;;;24.95;56.74;100413.44;4971838;28;20038;-82
2023/07/30 10:11:02;;;;;;;5.57;1.60;;;25.50;99.90;;;25.20;56.40;100420.63;4947680;28;20048;-83
2023/07/30 10:13:32;;;;;;;3.35;1.60;;;25.80;99.90;;;25.53;55.75;100430.25;4985719;28;20042;-82
2023/07/30 10:16:08;;;;;;;4.03;1.30;;;25.90;99.90;;;25.54;54.77;100428.38;4979100;28;20643;-82
2023/07/30 10:18:51;;;;;;;6.82;1.63;;;26.00;99.90;;;25.68;56.17;100426.78;5015187;28;20064;-82
2023/07/30 10:21:29;;;;;;;2.17;1.50;;;26.10;99.90;;;25.82;55.33;100436.00;4994216;28;20575;-83
2023/07/30 10:24:05;;;;;;;4.43;1.63;;;26.20;99.90;;;26.08;55.23;100449.16;4993148;28;20128;-81
2023/07/30 10:26:36;;;;;;;7.75;1.60;;;26.40;99.90;;;26.28;54.64;100450.34;4991383;28;20038;-82
2023/07/30 10:29:24;;;;;;;3.60;1.40;;;26.60;99.90;;;26.39;53.24;100447.25;4988591;28;20041;-82
2023/07/30 10:31:57;;;;;;;10.38;1.60;;;26.70;99.80;;;26.50;53.54;100453.22;4999260;28;20091;-80
2023/07/30 10:34:49;;;;;;;4.38;1.33;;;26.80;99.70;;;26.66;52.41;100454.97;5016977;28;20045;-82
2023/07/30 10:37:24;;;;;;;11.57;1.60;;;26.90;98.80;;;26.63;51.40;100461.59;4975257;28;20046;-83
2023/07/30 10:39:53;;;;;;;5.18;2.05;;;27.00;99.30;;;26.78;52.17;100459.75;4958977;28;20048;-82
2023/07/30 10:42:19;;;;;;;8.77;1.65;;;27.10;98.30;;;26.77;51.09;100468.84;4998040;28;20106;-82
2023/07/30 10:44:52;;;;;;;3.15;1.60;;;27.10;98.00;;;26.81;50.47;100472.03;4982512;28;20452;-82
2023/07/30 10:47:18;;;;;;;9.57;1.65;;;27.20;99.20;;;27.03;51.74;100467.59;5020025;28;20029;-81
2023/07/30 10:49:46;;;;;;;6.82;1.40;;;27.30;98.00;;;27.03;50.48;100467.59;5008573;28;20035;-80
2023/07/30 10:52:16;;;;;;;5.05;1.50;;;27.40;99.00;;;27.06;51.57;100466.38;4985309;28;20147;-82
2023/07/30 10:54:47;;;;;;;3.08;1.55;;;27.20;98.40;;;26.77;51.28;100468.84;5023722;28;20041;-81
2023/07/30 10:57:19;;;;;;;2.88;1.30;;;27.10;97.60;;;26.62;51.18;100470.69;5011906;28;20029;-82
2023/07/30 10:59:54;;;;;;;4.30;1.48;;;27.20;98.80;;;26.91;50.27;100469.91;4998415;28;20133;-83
2023/07/30 11:02:23;;;;;;;7.20;1.80;;;27.30;97.70;;;27.18;50.94;100471.13;5020718;28;20033;-82
2023/07/30 11:04:56;;;;;;;8.82;1.65;;;27.30;97.10;;;27.01;49.67;100481.28;4989162;28;20180;-82
2023/07/30 11:07:22;;;;;;;3.72;1.52;;;27.40;96.50;;;27.09;49.14;100477.66;4990790;28;20046;-82
2023/07/30 11:10:02;;;;;;;4.22;1.50;;;27.60;96.20;;;27.40;48.46;100484.75;5011625;28;20033;-81
2023/07/30 11:12:35;;;;;;;6.65;1.50;;;27.70;95.00;;;27.50;47.14;100482.63;4990396;28;20025;-81
2023/07/30 11:15:07;;;;;;;4.85;1.60;;;27.80;94.30;;;27.40;46.42;100495.56;4951106;28;20077;-83
2023/07/30 11:17:34;;;;;;;7.35;1.20;;;27.70;94.00;;;27.29;45.73;100491.47;4977525;28;20038;-81
2023/07/30 11:20:08;;;;;;;8.43;1.50;;;27.70;93.40;;;27.19;45.66;100491.75;5008915;28;20493;-82
2023/07/30 11:22:38;;;;;;;3.60;1.40;;;27.70;93.20;;;27.37;45.07;100490.56;4975652;28;20040;-81
2023/07/30 11:25:18;;;;;;;5.78;1.23;;;27.80;93.30;;;27.57;44.39;100488.94;5027158;28;20032;-82
2023/07/30 11:27:51;;;;;;;4.60;1.73;;;28.00;93.60;;;27.83;45.11;100490.28;5014831;28;20482;-83
2023/07/30 11:30:22;;;;;;;7.40;1.55;;;28.10;93.80;;;27.93;45.22;100496.28;5027530;28;20032;-81
2023/07/30 11:32:49;;;;;;;11.05;1.65;;;28.10;93.50;;;27.76;45.55;100500.22;4971239;28;20034;-81
2023/07/30 11:35:20;;;;;;;8.27;1.80;;;28.10;93.80;;;27.56;46.32;100492.69;4983892;28;20045;-81
2023/07/30 11:37:55;;;;;;;2.70;1.25;;;27.70;93.50;;;26.87;46.48;100492.06;5009571;28;20037;-81